createdAt,value
2019-01-12T00:00:51.092Z,100121.11
2019-01-12T00:03:54.743Z,100125.44
2019-01-12T00:06:58.176Z,100116.01
2019-01-12T00:10:01.643Z,100121.38
2019-01-12T00:13:06.218Z,100117.05
2019-01-12T00:16:09.672Z,100121.92
2019-01-12T00:19:13.182Z,100130.23
2019-01-12T00:22:16.673Z,100124.56
2019-01-12T00:25:20.173Z,100123.64
2019-01-12T00:28:24.594Z,100126.83
2019-01-12T00:31:28.085Z,100138.16
2019-01-12T00:34:31.562Z,100132.02
2019-01-12T00:37:35.093Z,100135.61
2019-01-12T00:40:38.610Z,100134.38
2019-01-12T00:43:42.112Z,100141.43
2019-01-12T00:46:45.599Z,100139.66
2019-01-12T00:49:50.174Z,100145.87
2019-01-12T00:52:53.639Z,100155.11
2019-01-12T00:55:57.127Z,100153.36
2019-01-12T00:59:00.575Z,100157.75
2019-01-12T01:02:04.023Z,100166.17
2019-01-12T01:05:07.930Z,100171.83
2019-01-12T01:08:11.437Z,100162.22
2019-01-12T01:11:15.042Z,100161.45
2019-01-12T01:14:18.527Z,100164.48
2019-01-12T01:17:22.042Z,100163.43
2019-01-12T01:20:27.590Z,100167.39
2019-01-12T01:23:31.110Z,100171.34
2019-01-12T01:26:34.597Z,100172.20
2019-01-12T01:29:38.083Z,100172.75
2019-01-12T01:32:41.520Z,100179.34
2019-01-12T01:35:45.013Z,100184.62
2019-01-12T01:38:48.592Z,100189.98
2019-01-12T01:41:53.264Z,100192.17
2019-01-12T01:44:56.727Z,100191.22
2019-01-12T01:48:00.250Z,100192.17
2019-01-12T01:51:03.848Z,100193.94
2019-01-12T01:54:09.372Z,100200.63
2019-01-12T01:57:12.902Z,100191.77
2019-01-12T02:00:18.531Z,100194.41
2019-01-12T02:03:22.041Z,100199.67
2019-01-12T02:06:25.537Z,100196.13
2019-01-12T02:09:29.024Z,100198.77
2019-01-12T02:12:32.590Z,100205.73
2019-01-12T02:15:36.138Z,100194.41
2019-01-12T02:18:40.600Z,100202.23
2019-01-12T02:21:44.081Z,100204.03
2019-01-12T02:24:47.560Z,100206.09
2019-01-12T02:27:51.168Z,100206.67
2019-01-12T02:30:54.690Z,100205.81
2019-01-12T02:33:59.199Z,100202.72
2019-01-12T02:37:02.640Z,100205.03
2019-01-12T02:40:06.127Z,100201.95
2019-01-12T02:43:09.692Z,100219.09
2019-01-12T02:46:13.209Z,100215.12
2019-01-12T02:49:16.641Z,100213.44
2019-01-12T02:52:20.121Z,100217.40
2019-01-12T02:55:23.639Z,100218.31
2019-01-12T02:58:27.179Z,100219.26
2019-01-12T03:01:30.716Z,100215.67
2019-01-12T03:04:34.147Z,100218.80
2019-01-12T03:07:37.617Z,100213.98
2019-01-12T03:10:41.213Z,100213.61
2019-01-12T03:13:44.706Z,100214.07
2019-01-12T03:16:48.218Z,100211.44
2019-01-12T03:19:51.697Z,100211.34
2019-01-12T03:22:55.126Z,100211.06
2019-01-12T03:25:58.611Z,100207.02
2019-01-12T03:29:02.098Z,100208.70
2019-01-12T03:32:05.724Z,100206.94
2019-01-12T03:35:09.196Z,100200.80
2019-01-12T03:38:12.706Z,100202.48
2019-01-12T03:41:16.148Z,100203.44
2019-01-12T03:44:19.611Z,100211.34
2019-01-12T03:47:23.117Z,100209.08
2019-01-12T03:50:26.559Z,100210.40
2019-01-12T03:53:30.159Z,100210.40
2019-01-12T03:56:33.643Z,100210.40
2019-01-12T03:59:37.207Z,100207.88
2019-01-12T04:02:40.732Z,100204.38
2019-01-12T04:05:45.238Z,100207.02
2019-01-12T04:08:48.743Z,100204.38
2019-01-12T04:11:52.255Z,100201.66
2019-01-12T04:14:56.929Z,100193.05
2019-01-12T04:18:00.509Z,100193.83
2019-01-12T04:21:05.010Z,100193.05
2019-01-12T04:24:08.496Z,100197.01
2019-01-12T04:27:17.955Z,100190.50
2019-01-12T04:30:21.435Z,100186.45
2019-01-12T04:33:25.973Z,100189.67
2019-01-12T04:36:35.503Z,100187.78
2019-01-12T04:39:38.940Z,100203.15
2019-01-12T04:42:42.413Z,100193.05
2019-01-12T04:45:47.087Z,100187.41
2019-01-12T04:48:50.552Z,100195.69
2019-01-12T04:51:54.031Z,100194.95
2019-01-12T04:54:57.633Z,100199.28
2019-01-12T04:58:01.153Z,100191.36
2019-01-12T05:01:04.635Z,100192.31
2019-01-12T05:04:08.140Z,100186.17
2019-01-12T05:07:11.579Z,100197.09
2019-01-12T05:10:15.201Z,100190.05
2019-01-12T05:13:18.842Z,100194.00
2019-01-12T05:16:22.293Z,100190.42
2019-01-12T05:19:25.755Z,100194.38
2019-01-12T05:22:30.181Z,100189.50
2019-01-12T05:25:33.671Z,100203.06
2019-01-12T05:28:37.119Z,100188.27
2019-01-12T05:31:40.584Z,100194.00
2019-01-12T05:34:44.073Z,100199.28
2019-01-12T05:37:47.574Z,100193.23
2019-01-12T05:40:51.066Z,100202.00
2019-01-12T05:43:54.611Z,100200.22
2019-01-12T05:46:58.191Z,100203.69
2019-01-12T05:50:01.694Z,100203.23
2019-01-12T05:53:06.218Z,100202.00
2019-01-12T05:56:10.745Z,100206.41
2019-01-12T05:59:14.228Z,100205.50
2019-01-12T06:02:17.995Z,100216.97
2019-01-12T06:05:21.630Z,100212.47
2019-01-12T06:08:25.074Z,100216.42
2019-01-12T06:11:28.531Z,100219.23
2019-01-12T06:14:31.982Z,100221.33
2019-01-12T06:17:37.499Z,100225.66
2019-01-12T06:20:42.011Z,100222.64
2019-01-12T06:23:45.534Z,100225.83
2019-01-12T06:26:49.035Z,100218.69
2019-01-12T06:29:52.482Z,100216.42
2019-01-12T06:32:58.052Z,100208.14
2019-01-12T06:36:01.553Z,100209.05
2019-01-12T06:39:08.832Z,100209.05
2019-01-12T06:42:12.462Z,100208.14
2019-01-12T06:45:16.559Z,100210.00
2019-01-12T06:48:20.095Z,100207.36
2019-01-12T06:51:23.565Z,100209.63
2019-01-12T06:54:27.095Z,100212.64
2019-01-12T06:57:30.575Z,100216.22
2019-01-12T07:00:36.131Z,100221.13
2019-01-12T07:03:39.735Z,100228.46
2019-01-12T07:06:43.322Z,100214.91
2019-01-12T07:09:46.777Z,100226.40
2019-01-12T07:12:50.238Z,100221.95
2019-01-12T07:15:53.885Z,100223.27
2019-01-12T07:18:57.535Z,100225.53
2019-01-12T07:22:01.030Z,100225.08
2019-01-12T07:25:04.784Z,100221.58
2019-01-12T07:28:08.250Z,100229.95
2019-01-12T07:31:11.741Z,100225.99
2019-01-12T07:34:15.248Z,100229.41
2019-01-12T07:37:20.783Z,100232.99
2019-01-12T07:40:24.285Z,100239.59
2019-01-12T07:43:28.939Z,100247.66
2019-01-12T07:46:32.448Z,100251.05
2019-01-12T07:49:35.934Z,100256.81
2019-01-12T07:52:39.378Z,100259.91
2019-01-12T07:55:42.842Z,100256.90
2019-01-12T07:58:52.508Z,100256.90
2019-01-12T08:01:56.004Z,100257.64
2019-01-12T08:05:00.551Z,100258.22
2019-01-12T08:08:04.207Z,100255.58
2019-01-12T08:11:07.699Z,100254.63
2019-01-12T08:14:11.204Z,100255.00
2019-01-12T08:17:14.697Z,100253.31
2019-01-12T08:20:18.210Z,100253.31
2019-01-12T08:23:21.698Z,100259.91
2019-01-12T08:26:30.955Z,100253.23
2019-01-12T08:29:30.423Z,100251.45
2019-01-12T08:32:34.054Z,100245.77
2019-01-12T08:35:37.554Z,100248.41
2019-01-12T08:38:42.123Z,100241.81
2019-01-12T08:41:45.589Z,100242.59
2019-01-12T08:44:50.096Z,100238.30
2019-01-12T08:47:53.657Z,100237.72
2019-01-12T08:50:57.105Z,100235.09
2019-01-12T08:54:00.642Z,100231.50
2019-01-12T08:57:10.048Z,100231.13
2019-01-12T09:00:18.423Z,100232.73
2019-01-12T09:03:23.031Z,100230.02
2019-01-12T09:06:26.480Z,100227.00
2019-01-12T09:09:30.014Z,100226.05
2019-01-12T09:12:33.501Z,100225.23
2019-01-12T09:15:36.988Z,100219.86
2019-01-12T09:18:40.486Z,100211.09
2019-01-12T09:21:43.991Z,100220.78
2019-01-12T09:24:47.561Z,100211.86
2019-01-12T09:27:51.306Z,100207.42
2019-01-12T09:30:57.994Z,100200.71
2019-01-12T09:34:02.546Z,100202.03
2019-01-12T09:37:06.095Z,100197.21
2019-01-12T09:40:11.761Z,100200.80
2019-01-12T09:43:15.351Z,100191.48
2019-01-12T09:46:19.017Z,100185.75
2019-01-12T09:49:22.670Z,100180.64
2019-01-12T09:52:26.271Z,100176.42
2019-01-12T09:55:29.890Z,100171.98
2019-01-12T09:58:33.363Z,100170.83
2019-01-12T10:01:36.884Z,100166.42
2019-01-12T10:04:40.427Z,100163.87
2019-01-12T10:07:45.076Z,100158.59
2019-01-12T10:10:48.752Z,100144.86
2019-01-12T10:13:52.438Z,100133.38
2019-01-12T10:16:57.143Z,100140.52
2019-01-12T10:20:00.770Z,100132.25
2019-01-12T10:23:05.285Z,100120.81
2019-01-12T10:26:08.770Z,100118.91
2019-01-12T10:29:12.273Z,100116.87
2019-01-12T10:32:16.794Z,100110.73
2019-01-12T10:35:20.335Z,100112.14
2019-01-12T10:38:23.899Z,100114.00
2019-01-12T10:41:28.643Z,100109.13
2019-01-12T10:44:33.258Z,100105.72
2019-01-12T10:47:37.381Z,100103.85
2019-01-12T10:50:40.880Z,100105.72
2019-01-12T10:53:44.310Z,100103.36
2019-01-12T10:56:48.956Z,100092.30
2019-01-12T10:59:52.412Z,100091.53
2019-01-12T11:02:55.935Z,100082.39
2019-01-12T11:05:59.411Z,100076.28
2019-01-12T11:09:10.075Z,100077.33
2019-01-12T11:12:19.245Z,100073.83
2019-01-12T11:15:22.922Z,100069.50
2019-01-12T11:18:26.520Z,100067.41
2019-01-12T11:21:30.012Z,100063.27
2019-01-12T11:24:33.534Z,100054.05
2019-01-12T11:27:37.016Z,100056.31
2019-01-12T11:30:40.599Z,100054.99
2019-01-12T11:33:44.241Z,100044.44
2019-01-12T11:36:47.748Z,100033.31
2019-01-12T11:39:51.245Z,100036.66
2019-01-12T11:42:54.732Z,100027.20
2019-01-12T11:45:58.248Z,100020.70
2019-01-12T11:49:01.739Z,100016.75
2019-01-12T11:52:05.287Z,100013.96
2019-01-12T11:55:09.586Z,100005.16
2019-01-12T11:58:13.065Z,99994.17
2019-01-12T12:01:19.835Z,99992.27
2019-01-12T12:04:23.429Z,99987.27
2019-01-12T12:07:27.159Z,99989.45
2019-01-12T12:10:30.864Z,99979.35
2019-01-12T12:13:34.569Z,99981.53
2019-01-12T12:16:38.149Z,99971.74
2019-01-12T12:19:41.664Z,99958.64
2019-01-12T12:22:45.282Z,99956.83
2019-01-12T12:25:48.870Z,99947.23
2019-01-12T12:28:54.958Z,99943.64
2019-01-12T12:31:58.608Z,99941.00
2019-01-12T12:35:03.476Z,99930.54
2019-01-12T12:38:07.251Z,99932.72
2019-01-12T12:41:10.872Z,99922.93
2019-01-12T12:44:14.394Z,99916.43
2019-01-12T12:47:17.933Z,99914.06
2019-01-12T12:50:21.628Z,99914.61
2019-01-12T12:53:26.396Z,99902.92
2019-01-12T12:56:30.101Z,99910.47
2019-01-12T12:59:34.737Z,99909.53
2019-01-12T13:02:38.507Z,99896.73
2019-01-12T13:05:42.349Z,99889.09
2019-01-12T13:08:48.525Z,99884.67
2019-01-12T13:11:51.397Z,99886.91
2019-01-12T13:14:56.042Z,99875.23
2019-01-12T13:17:59.539Z,99872.59
2019-01-12T13:21:03.047Z,99862.99
2019-01-12T13:24:06.547Z,99866.48
2019-01-12T13:27:12.144Z,99863.58
2019-01-12T13:30:17.944Z,99861.67
2019-01-12T13:33:21.550Z,99860.94
2019-01-12T13:36:25.056Z,99855.84
2019-01-12T13:39:32.107Z,99854.25
2019-01-12T13:42:33.910Z,99841.96
2019-01-12T13:45:37.538Z,99823.42
2019-01-12T13:48:41.001Z,99815.14
2019-01-12T13:51:45.427Z,99803.27
2019-01-12T13:54:48.941Z,99790.44
2019-01-12T13:57:52.543Z,99789.61
2019-01-12T14:00:56.162Z,99783.55
2019-01-12T14:03:59.625Z,99776.30
2019-01-12T14:07:04.168Z,99780.15
2019-01-12T14:10:09.290Z,99779.33
2019-01-12T14:13:12.741Z,99781.77
2019-01-12T14:16:17.324Z,99769.30
2019-01-12T14:19:20.818Z,99776.27
2019-01-12T14:22:24.327Z,99775.15
2019-01-12T14:25:28.955Z,99771.91
2019-01-12T14:28:32.568Z,99764.59
2019-01-12T14:31:36.175Z,99763.17
2019-01-12T14:34:39.762Z,99764.03
2019-01-12T14:37:44.414Z,99769.67
2019-01-12T14:40:47.993Z,99759.31
2019-01-12T14:43:51.496Z,99755.55
2019-01-12T14:46:55.003Z,99738.37
2019-01-12T14:49:58.515Z,99747.30
2019-01-12T14:53:02.045Z,99733.25
2019-01-12T14:56:05.480Z,99727.22
2019-01-12T14:59:09.112Z,99718.73
2019-01-12T15:02:13.753Z,99715.94
2019-01-12T15:05:19.004Z,99715.86
2019-01-12T15:08:22.469Z,99712.81
2019-01-12T15:11:26.198Z,99697.75
2019-01-12T15:14:29.788Z,99699.37
2019-01-12T15:17:33.289Z,99703.19
2019-01-12T15:20:36.777Z,99696.67
2019-01-12T15:23:40.282Z,99696.44
2019-01-12T15:26:43.804Z,99687.89
2019-01-12T15:29:47.282Z,99687.69
2019-01-12T15:32:50.787Z,99687.84
2019-01-12T15:35:54.328Z,99684.23
2019-01-12T15:39:01.635Z,99677.42
2019-01-12T15:42:03.255Z,99678.00
2019-01-12T15:45:09.306Z,99676.94
2019-01-12T15:48:12.868Z,99672.23
2019-01-12T15:51:16.572Z,99663.70
2019-01-12T15:54:20.202Z,99673.31
2019-01-12T15:57:23.653Z,99656.99
2019-01-12T16:00:29.283Z,99662.42
2019-01-12T16:03:32.758Z,99657.17
2019-01-12T16:06:36.269Z,99644.35
2019-01-12T16:09:39.761Z,99653.53
2019-01-12T16:12:44.307Z,99638.39
2019-01-12T16:15:47.783Z,99634.78
2019-01-12T16:18:51.283Z,99630.98
2019-01-12T16:21:54.795Z,99623.20
2019-01-12T16:24:58.385Z,99618.27
2019-01-12T16:28:02.126Z,99618.80
2019-01-12T16:31:05.717Z,99611.48
2019-01-12T16:34:09.219Z,99599.02
2019-01-12T16:37:12.708Z,99601.66
2019-01-12T16:40:18.359Z,99596.37
2019-01-12T16:43:22.017Z,99585.81
2019-01-12T16:46:25.468Z,99585.20
2019-01-12T16:49:28.953Z,99578.59
2019-01-12T16:52:32.472Z,99576.94
2019-01-12T16:55:35.962Z,99567.92
2019-01-12T16:58:39.524Z,99567.45
2019-01-12T17:01:43.195Z,99565.58
2019-01-12T17:04:46.693Z,99555.72
2019-01-12T17:07:50.185Z,99539.61
2019-01-12T17:10:53.671Z,99537.84
2019-01-12T17:13:57.110Z,99528.11
2019-01-12T17:17:01.730Z,99521.97
2019-01-12T17:20:06.326Z,99520.03
2019-01-12T17:23:09.929Z,99514.16
2019-01-12T17:26:14.440Z,99517.77
2019-01-12T17:29:19.023Z,99501.66
2019-01-12T17:32:23.516Z,99498.91
2019-01-12T17:35:27.289Z,99495.52
2019-01-12T17:38:30.948Z,99477.86
2019-01-12T17:41:34.420Z,99479.19
2019-01-12T17:44:38.940Z,99466.30
2019-01-12T17:47:42.471Z,99467.28
2019-01-12T17:50:46.040Z,99462.69
2019-01-12T17:53:49.649Z,99447.55
2019-01-12T17:56:53.081Z,99450.93
2019-01-12T17:59:56.658Z,99463.55
2019-01-12T18:03:01.289Z,99453.19
2019-01-12T18:06:04.882Z,99459.69
2019-01-12T18:09:09.415Z,99452.25
2019-01-12T18:12:12.906Z,99443.81
2019-01-12T18:15:16.437Z,99440.58
2019-01-12T18:18:19.909Z,99437.92
2019-01-12T18:21:23.412Z,99434.70
2019-01-12T18:24:26.905Z,99440.34
2019-01-12T18:27:30.405Z,99429.52
2019-01-12T18:30:33.951Z,99430.45
2019-01-12T18:33:37.432Z,99434.69
2019-01-12T18:36:40.913Z,99431.19
2019-01-12T18:39:45.441Z,99430.45
2019-01-12T18:42:49.964Z,99424.44
2019-01-12T18:45:53.463Z,99411.33
2019-01-12T18:48:56.988Z,99422.88
2019-01-12T18:52:01.553Z,99420.70
2019-01-12T18:55:05.251Z,99403.12
2019-01-12T18:58:08.697Z,99411.92
2019-01-12T19:01:12.209Z,99418.55
2019-01-12T19:04:16.737Z,99410.48
2019-01-12T19:07:20.221Z,99398.57
2019-01-12T19:10:23.878Z,99403.86
2019-01-12T19:13:27.442Z,99396.03
2019-01-12T19:16:30.926Z,99401.80
2019-01-12T19:19:35.466Z,99381.58
2019-01-12T19:22:38.892Z,99393.95
2019-01-12T19:25:42.484Z,99392.92
2019-01-12T19:28:46.034Z,99396.02
2019-01-12T19:31:49.665Z,99384.98
2019-01-12T19:34:53.165Z,99396.48
2019-01-12T19:38:02.610Z,99386.66
2019-01-12T19:41:06.115Z,99385.69
2019-01-12T19:44:09.610Z,99388.21
2019-01-12T19:47:13.205Z,99386.77
2019-01-12T19:50:18.888Z,99389.76
2019-01-12T19:53:23.394Z,99390.73
2019-01-12T19:56:27.001Z,99390.73
2019-01-12T19:59:30.447Z,99391.19
2019-01-12T20:02:34.911Z,99390.61
2019-01-12T20:05:38.418Z,99388.54
2019-01-12T20:08:43.024Z,99383.24
2019-01-12T20:11:46.634Z,99381.92
2019-01-12T20:14:50.216Z,99388.30
2019-01-12T20:17:53.849Z,99375.44
2019-01-12T20:20:57.363Z,99377.11
2019-01-12T20:24:00.912Z,99373.26
2019-01-12T20:27:04.557Z,99373.13
2019-01-12T20:30:13.918Z,99372.64
2019-01-12T20:33:23.851Z,99374.56
2019-01-12T20:37:00.353Z,99369.61
2019-01-12T20:40:22.661Z,99365.64
2019-01-12T20:43:54.343Z,99361.19
2019-01-12T20:47:09.144Z,99360.47
2019-01-12T20:50:38.605Z,99349.15
2019-01-12T20:54:19.702Z,99353.34
2019-01-12T20:57:41.782Z,99343.25
2019-01-12T21:01:25.910Z,99346.25
2019-01-12T21:05:25.289Z,99343.09
2019-01-12T21:09:05.960Z,99341.17
2019-01-12T21:12:50.005Z,99338.05
2019-01-12T21:16:01.342Z,99340.70
2019-01-12T21:19:04.914Z,99324.17
2019-01-12T21:22:09.423Z,99328.66
2019-01-12T21:25:14.987Z,99313.58
2019-01-12T21:28:18.476Z,99309.00
2019-01-12T21:31:24.146Z,99306.70
2019-01-12T21:34:27.844Z,99305.38
2019-01-12T21:37:31.447Z,99310.20
2019-01-12T21:40:35.976Z,99309.00
2019-01-12T21:43:39.456Z,99308.88
2019-01-12T21:46:42.976Z,99298.76
2019-01-12T21:49:48.564Z,99292.13
2019-01-12T21:52:52.308Z,99296.45
2019-01-12T21:55:56.949Z,99280.81
2019-01-12T21:59:02.518Z,99290.90
2019-01-12T22:02:06.130Z,99284.28
2019-01-12T22:05:10.055Z,99281.62
2019-01-12T22:08:13.601Z,99279.36
2019-01-12T22:11:17.236Z,99283.42
2019-01-12T22:14:20.860Z,99278.59
2019-01-12T22:17:24.356Z,99270.77
2019-01-12T22:20:27.844Z,99276.58
2019-01-12T22:23:33.032Z,99277.00
2019-01-12T22:26:36.664Z,99274.73
2019-01-12T22:29:40.160Z,99270.28
2019-01-12T22:32:43.715Z,99275.13
2019-01-12T22:35:48.196Z,99270.21
2019-01-12T22:38:51.676Z,99270.34
2019-01-12T22:41:55.123Z,99268.57
2019-01-12T22:44:58.589Z,99265.19
2019-01-12T22:48:02.127Z,99270.86
2019-01-12T22:51:06.749Z,99276.40
2019-01-12T22:54:12.257Z,99263.79
2019-01-12T22:57:16.800Z,99267.65
2019-01-12T23:00:31.341Z,99258.28
2019-01-12T23:03:34.883Z,99259.26
2019-01-12T23:06:38.370Z,99250.48
2019-01-12T23:09:43.890Z,99252.33
2019-01-12T23:12:47.412Z,99257.77
2019-01-12T23:15:50.905Z,99258.48
2019-01-12T23:18:54.393Z,99254.76
2019-01-12T23:21:58.924Z,99255.13
2019-01-12T23:25:02.441Z,99256.95
2019-01-12T23:28:05.919Z,99256.45
2019-01-12T23:31:09.443Z,99252.03
2019-01-12T23:34:12.949Z,99245.54
2019-01-12T23:37:16.381Z,99245.91
2019-01-12T23:40:19.873Z,99253.58
2019-01-12T23:43:23.438Z,99245.77
2019-01-12T23:46:26.937Z,99249.97
2019-01-12T23:49:30.438Z,99254.80
2019-01-12T23:52:33.969Z,99243.84
2019-01-12T23:55:37.435Z,99246.96
2019-01-12T23:58:40.922Z,99254.19
